sensor_id;sensor_type;location;lat;lon;timestamp;P1;durP1;ratioP1;P2;durP2;ratioP2
78589;SDS011;67888;50.228;7.828;2023-04-10T00:03:37;13.43;;;5.67;;
78589;SDS011;67888;50.228;7.828;2023-04-10T00:08:38;11.13;;;4.73;;
78589;SDS011;67888;50.228;7.828;2023-04-10T00:13:38;12.63;;;5.63;;
78589;SDS011;67888;50.228;7.828;2023-04-10T00:18:38;11.03;;;4.97;;
78589;SDS011;67888;50.228;7.828;2023-04-10T00:23:39;11.30;;;5.10;;
78589;SDS011;67888;50.228;7.828;2023-04-10T00:28:39;12.23;;;5.50;;
78589;SDS011;67888;50.228;7.828;2023-04-10T00:33:40;11.87;;;5.57;;
78589;SDS011;67888;50.228;7.828;2023-04-10T00:38:40;12.57;;;5.80;;
78589;SDS011;67888;50.228;7.828;2023-04-10T00:43:41;13.57;;;5.60;;
78589;SDS011;67888;50.228;7.828;2023-04-10T00:48:41;13.40;;;5.73;;
78589;SDS011;67888;50.228;7.828;2023-04-10T00:53:42;13.03;;;5.70;;
78589;SDS011;67888;50.228;7.828;2023-04-10T00:58:42;11.27;;;5.53;;
78589;SDS011;67888;50.228;7.828;2023-04-10T01:03:43;11.65;;;5.47;;
78589;SDS011;67888;50.228;7.828;2023-04-10T01:08:55;12.27;;;5.80;;
78589;SDS011;67888;50.228;7.828;2023-04-10T01:14:06;10.38;;;4.80;;
78589;SDS011;67888;50.228;7.828;2023-04-10T01:19:24;12.48;;;6.22;;
78589;SDS011;67888;50.228;7.828;2023-04-10T01:24:45;12.13;;;5.53;;
78589;SDS011;67888;50.228;7.828;2023-04-10T01:29:55;11.90;;;5.43;;
78589;SDS011;67888;50.228;7.828;2023-04-10T01:35:01;11.68;;;5.40;;
78589;SDS011;67888;50.228;7.828;2023-04-10T01:40:07;12.52;;;5.60;;
78589;SDS011;67888;50.228;7.828;2023-04-10T01:45:11;11.53;;;5.23;;
78589;SDS011;67888;50.228;7.828;2023-04-10T01:50:15;11.75;;;5.57;;
78589;SDS011;67888;50.228;7.828;2023-04-10T01:55:16;12.73;;;5.30;;
78589;SDS011;67888;50.228;7.828;2023-04-10T02:00:18;12.77;;;5.60;;
78589;SDS011;67888;50.228;7.828;2023-04-10T02:05:19;12.45;;;5.88;;
78589;SDS011;67888;50.228;7.828;2023-04-10T02:10:23;12.13;;;6.37;;
78589;SDS011;67888;50.228;7.828;2023-04-10T02:15:30;11.18;;;5.63;;
78589;SDS011;67888;50.228;7.828;2023-04-10T02:20:32;13.48;;;6.72;;
78589;SDS011;67888;50.228;7.828;2023-04-10T02:25:33;14.53;;;6.93;;
78589;SDS011;67888;50.228;7.828;2023-04-10T02:30:34;12.43;;;5.97;;
78589;SDS011;67888;50.228;7.828;2023-04-10T02:35:35;10.53;;;5.20;;
78589;SDS011;67888;50.228;7.828;2023-04-10T02:40:36;10.27;;;4.93;;
78589;SDS011;67888;50.228;7.828;2023-04-10T02:45:36;13.07;;;5.70;;
78589;SDS011;67888;50.228;7.828;2023-04-10T02:50:38;14.60;;;6.15;;
78589;SDS011;67888;50.228;7.828;2023-04-10T02:55:38;11.57;;;5.23;;
78589;SDS011;67888;50.228;7.828;2023-04-10T03:00:39;11.37;;;5.93;;
78589;SDS011;67888;50.228;7.828;2023-04-10T03:05:39;11.57;;;4.80;;
78589;SDS011;67888;50.228;7.828;2023-04-10T03:10:41;13.13;;;5.28;;
78589;SDS011;67888;50.228;7.828;2023-04-10T03:15:47;11.40;;;4.40;;
78589;SDS011;67888;50.228;7.828;2023-04-10T03:20:48;10.90;;;4.85;;
78589;SDS011;67888;50.228;7.828;2023-04-10T03:25:49;12.20;;;5.80;;
78589;SDS011;67888;50.228;7.828;2023-04-10T03:30:52;12.40;;;5.57;;
78589;SDS011;67888;50.228;7.828;2023-04-10T03:35:53;13.60;;;5.43;;
78589;SDS011;67888;50.228;7.828;2023-04-10T03:40:53;10.90;;;5.40;;
78589;SDS011;67888;50.228;7.828;2023-04-10T03:45:53;9.60;;;4.77;;
78589;SDS011;67888;50.228;7.828;2023-04-10T03:50:54;11.87;;;5.57;;
78589;SDS011;67888;50.228;7.828;2023-04-10T03:55:54;11.73;;;5.90;;
78589;SDS011;67888;50.228;7.828;2023-04-10T04:00:56;11.13;;;5.90;;
78589;SDS011;67888;50.228;7.828;2023-04-10T04:05:56;11.70;;;5.93;;
78589;SDS011;67888;50.228;7.828;2023-04-10T04:10:57;13.00;;;5.63;;
78589;SDS011;67888;50.228;7.828;2023-04-10T04:15:57;13.17;;;6.43;;
78589;SDS011;67888;50.228;7.828;2023-04-10T04:20:57;12.67;;;5.70;;
78589;SDS011;67888;50.228;7.828;2023-04-10T04:25:58;13.17;;;7.03;;
78589;SDS011;67888;50.228;7.828;2023-04-10T04:30:58;14.47;;;6.40;;
78589;SDS011;67888;50.228;7.828;2023-04-10T04:35:59;13.13;;;5.63;;
78589;SDS011;67888;50.228;7.828;2023-04-10T04:41:00;12.93;;;5.10;;
78589;SDS011;67888;50.228;7.828;2023-04-10T04:46:00;11.83;;;5.63;;
78589;SDS011;67888;50.228;7.828;2023-04-10T04:51:01;12.50;;;5.50;;
78589;SDS011;67888;50.228;7.828;2023-04-10T04:56:01;11.10;;;5.47;;
78589;SDS011;67888;50.228;7.828;2023-04-10T05:01:02;12.10;;;4.93;;
78589;SDS011;67888;50.228;7.828;2023-04-10T05:06:02;12.23;;;5.43;;
78589;SDS011;67888;50.228;7.828;2023-04-10T05:11:03;12.45;;;5.88;;
78589;SDS011;67888;50.228;7.828;2023-04-10T05:16:04;12.37;;;5.67;;
78589;SDS011;67888;50.228;7.828;2023-04-10T05:21:05;11.47;;;5.00;;
78589;SDS011;67888;50.228;7.828;2023-04-10T05:26:06;12.13;;;5.65;;
78589;SDS011;67888;50.228;7.828;2023-04-10T05:31:07;12.60;;;5.93;;
78589;SDS011;67888;50.228;7.828;2023-04-10T05:36:07;11.40;;;6.03;;
78589;SDS011;67888;50.228;7.828;2023-04-10T05:41:08;12.33;;;5.67;;
78589;SDS011;67888;50.228;7.828;2023-04-10T05:46:08;12.00;;;5.57;;
78589;SDS011;67888;50.228;7.828;2023-04-10T05:51:10;11.80;;;5.72;;
78589;SDS011;67888;50.228;7.828;2023-04-10T05:56:11;13.50;;;5.67;;
78589;SDS011;67888;50.228;7.828;2023-04-10T06:01:11;12.10;;;5.80;;
78589;SDS011;67888;50.228;7.828;2023-04-10T06:06:12;11.80;;;5.53;;
78589;SDS011;67888;50.228;7.828;2023-04-10T06:11:12;13.77;;;6.73;;
78589;SDS011;67888;50.228;7.828;2023-04-10T06:16:13;12.73;;;5.87;;
78589;SDS011;67888;50.228;7.828;2023-04-10T06:21:16;11.75;;;6.03;;
78589;SDS011;67888;50.228;7.828;2023-04-10T06:26:17;12.33;;;6.17;;
78589;SDS011;67888;50.228;7.828;2023-04-10T06:31:20;12.50;;;6.20;;
78589;SDS011;67888;50.228;7.828;2023-04-10T06:36:21;12.55;;;6.07;;
78589;SDS011;67888;50.228;7.828;2023-04-10T06:41:22;13.53;;;6.50;;
78589;SDS011;67888;50.228;7.828;2023-04-10T06:46:22;15.10;;;6.97;;
78589;SDS011;67888;50.228;7.828;2023-04-10T06:51:23;13.43;;;6.03;;
78589;SDS011;67888;50.228;7.828;2023-04-10T06:56:23;13.33;;;6.60;;
78589;SDS011;67888;50.228;7.828;2023-04-10T07:01:23;16.87;;;8.17;;
78589;SDS011;67888;50.228;7.828;2023-04-10T07:06:24;18.57;;;9.43;;
78589;SDS011;67888;50.228;7.828;2023-04-10T07:11:26;17.93;;;8.93;;
78589;SDS011;67888;50.228;7.828;2023-04-10T07:16:26;17.87;;;9.37;;
78589;SDS011;67888;50.228;7.828;2023-04-10T07:21:28;17.75;;;8.25;;
78589;SDS011;67888;50.228;7.828;2023-04-10T07:26:28;12.40;;;5.90;;
78589;SDS011;67888;50.228;7.828;2023-04-10T07:31:29;11.63;;;5.40;;
78589;SDS011;67888;50.228;7.828;2023-04-10T07:36:29;14.73;;;6.53;;
78589;SDS011;67888;50.228;7.828;2023-04-10T07:41:30;10.55;;;4.70;;
78589;SDS011;67888;50.228;7.828;2023-04-10T07:46:31;10.40;;;5.00;;
78589;SDS011;67888;50.228;7.828;2023-04-10T07:51:31;10.90;;;5.00;;
78589;SDS011;67888;50.228;7.828;2023-04-10T07:56:32;10.23;;;4.70;;
78589;SDS011;67888;50.228;7.828;2023-04-10T08:01:32;10.20;;;4.80;;
78589;SDS011;67888;50.228;7.828;2023-04-10T08:06:33;9.68;;;4.70;;
78589;SDS011;67888;50.228;7.828;2023-04-10T08:11:33;10.33;;;4.87;;
78589;SDS011;67888;50.228;7.828;2023-04-10T08:16:35;10.43;;;5.07;;
78589;SDS011;67888;50.228;7.828;2023-04-10T08:21:37;10.70;;;5.22;;
78589;SDS011;67888;50.228;7.828;2023-04-10T08:26:37;9.47;;;4.67;;
78589;SDS011;67888;50.228;7.828;2023-04-10T08:31:38;9.83;;;4.60;;
78589;SDS011;67888;50.228;7.828;2023-04-10T08:36:38;9.53;;;4.30;;
78589;SDS011;67888;50.228;7.828;2023-04-10T08:41:39;10.00;;;4.87;;
78589;SDS011;67888;50.228;7.828;2023-04-10T08:46:42;10.38;;;4.88;;
78589;SDS011;67888;50.228;7.828;2023-04-10T08:51:45;10.20;;;4.93;;
78589;SDS011;67888;50.228;7.828;2023-04-10T08:56:50;10.43;;;4.67;;
78589;SDS011;67888;50.228;7.828;2023-04-10T09:01:53;8.85;;;4.47;;
78589;SDS011;67888;50.228;7.828;2023-04-10T09:06:53;8.50;;;4.43;;
78589;SDS011;67888;50.228;7.828;2023-04-10T09:17:08;9.10;;;4.30;;
78589;SDS011;67888;50.228;7.828;2023-04-10T09:22:29;9.10;;;4.25;;
78589;SDS011;67888;50.228;7.828;2023-04-10T09:27:32;10.02;;;4.40;;
78589;SDS011;67888;50.228;7.828;2023-04-10T09:32:41;8.80;;;4.13;;
78589;SDS011;67888;50.228;7.828;2023-04-10T09:37:44;10.00;;;4.38;;
78589;SDS011;67888;50.228;7.828;2023-04-10T09:42:45;9.10;;;4.50;;
78589;SDS011;67888;50.228;7.828;2023-04-10T09:47:59;9.10;;;3.97;;
78589;SDS011;67888;50.228;7.828;2023-04-10T09:53:06;10.27;;;4.43;;
78589;SDS011;67888;50.228;7.828;2023-04-10T09:58:08;8.00;;;3.73;;
78589;SDS011;67888;50.228;7.828;2023-04-10T10:03:10;9.90;;;4.87;;
78589;SDS011;67888;50.228;7.828;2023-04-10T10:08:14;9.57;;;4.50;;
78589;SDS011;67888;50.228;7.828;2023-04-10T10:13:29;12.67;;;5.73;;
78589;SDS011;67888;50.228;7.828;2023-04-10T10:18:38;8.65;;;4.40;;
78589;SDS011;67888;50.228;7.828;2023-04-10T10:23:50;9.50;;;4.60;;
78589;SDS011;67888;50.228;7.828;2023-04-10T10:28:54;10.33;;;4.03;;
78589;SDS011;67888;50.228;7.828;2023-04-10T10:33:55;7.95;;;3.90;;
78589;SDS011;67888;50.228;7.828;2023-04-10T10:39:20;8.40;;;4.60;;
78589;SDS011;67888;50.228;7.828;2023-04-10T10:44:22;8.87;;;4.17;;
78589;SDS011;67888;50.228;7.828;2023-04-10T10:54:53;8.60;;;4.40;;
78589;SDS011;67888;50.228;7.828;2023-04-10T10:59:54;7.97;;;3.90;;
78589;SDS011;67888;50.228;7.828;2023-04-10T11:04:54;8.70;;;4.33;;
78589;SDS011;67888;50.228;7.828;2023-04-10T11:09:55;8.77;;;4.37;;
78589;SDS011;67888;50.228;7.828;2023-04-10T11:19:58;9.88;;;4.75;;
78589;SDS011;67888;50.228;7.828;2023-04-10T11:24:59;10.10;;;4.60;;
78589;SDS011;67888;50.228;7.828;2023-04-10T11:30:01;8.93;;;4.47;;
78589;SDS011;67888;50.228;7.828;2023-04-10T11:35:02;9.32;;;4.53;;
78589;SDS011;67888;50.228;7.828;2023-04-10T11:40:04;9.07;;;4.50;;
78589;SDS011;67888;50.228;7.828;2023-04-10T11:50:41;9.80;;;5.18;;
78589;SDS011;67888;50.228;7.828;2023-04-10T11:55:42;9.20;;;4.73;;
78589;SDS011;67888;50.228;7.828;2023-04-10T12:00:42;9.00;;;4.80;;
78589;SDS011;67888;50.228;7.828;2023-04-10T12:05:46;9.10;;;4.43;;
78589;SDS011;67888;50.228;7.828;2023-04-10T12:10:47;9.23;;;4.65;;
78589;SDS011;67888;50.228;7.828;2023-04-10T12:15:47;8.17;;;3.90;;
78589;SDS011;67888;50.228;7.828;2023-04-10T12:20:48;8.30;;;4.20;;
78589;SDS011;67888;50.228;7.828;2023-04-10T12:25:51;7.88;;;3.90;;
78589;SDS011;67888;50.228;7.828;2023-04-10T12:30:52;9.63;;;5.32;;
78589;SDS011;67888;50.228;7.828;2023-04-10T12:35:53;8.10;;;4.03;;
78589;SDS011;67888;50.228;7.828;2023-04-10T12:40:56;8.23;;;4.50;;
78589;SDS011;67888;50.228;7.828;2023-04-10T12:45:57;8.63;;;4.80;;
78589;SDS011;67888;50.228;7.828;2023-04-10T12:50:58;8.87;;;4.67;;
78589;SDS011;67888;50.228;7.828;2023-04-10T12:56:03;8.23;;;4.40;;
78589;SDS011;67888;50.228;7.828;2023-04-10T13:01:05;8.35;;;4.25;;
78589;SDS011;67888;50.228;7.828;2023-04-10T13:06:08;7.37;;;3.60;;
78589;SDS011;67888;50.228;7.828;2023-04-10T13:11:08;7.63;;;3.80;;
78589;SDS011;67888;50.228;7.828;2023-04-10T13:16:09;7.13;;;3.50;;
78589;SDS011;67888;50.228;7.828;2023-04-10T13:21:12;7.85;;;4.05;;
78589;SDS011;67888;50.228;7.828;2023-04-10T13:26:18;7.32;;;3.50;;
78589;SDS011;67888;50.228;7.828;2023-04-10T13:31:18;7.57;;;3.90;;
78589;SDS011;67888;50.228;7.828;2023-04-10T13:36:20;7.57;;;4.07;;
78589;SDS011;67888;50.228;7.828;2023-04-10T13:41:20;7.43;;;3.47;;
78589;SDS011;67888;50.228;7.828;2023-04-10T13:46:22;7.38;;;3.75;;
78589;SDS011;67888;50.228;7.828;2023-04-10T13:51:23;7.13;;;3.57;;
78589;SDS011;67888;50.228;7.828;2023-04-10T13:56:23;7.47;;;4.10;;
78589;SDS011;67888;50.228;7.828;2023-04-10T14:01:23;6.77;;;3.20;;
78589;SDS011;67888;50.228;7.828;2023-04-10T14:06:24;6.72;;;3.17;;
78589;SDS011;67888;50.228;7.828;2023-04-10T14:11:26;7.40;;;3.73;;
78589;SDS011;67888;50.228;7.828;2023-04-10T14:16:27;8.00;;;4.15;;
78589;SDS011;67888;50.228;7.828;2023-04-10T14:21:27;6.93;;;3.20;;
78589;SDS011;67888;50.228;7.828;2023-04-10T14:26:28;6.90;;;3.20;;
78589;SDS011;67888;50.228;7.828;2023-04-10T14:31:29;5.53;;;2.63;;
78589;SDS011;67888;50.228;7.828;2023-04-10T14:36:29;5.83;;;2.70;;
78589;SDS011;67888;50.228;7.828;2023-04-10T14:41:31;6.70;;;3.30;;
78589;SDS011;67888;50.228;7.828;2023-04-10T14:46:31;6.77;;;3.50;;
78589;SDS011;67888;50.228;7.828;2023-04-10T14:51:31;6.33;;;2.97;;
78589;SDS011;67888;50.228;7.828;2023-04-10T14:56:33;6.80;;;3.20;;
78589;SDS011;67888;50.228;7.828;2023-04-10T15:01:34;6.03;;;2.60;;
78589;SDS011;67888;50.228;7.828;2023-04-10T15:06:37;6.25;;;2.70;;
78589;SDS011;67888;50.228;7.828;2023-04-10T15:11:37;6.10;;;2.83;;
78589;SDS011;67888;50.228;7.828;2023-04-10T15:16:37;5.40;;;2.33;;
78589;SDS011;67888;50.228;7.828;2023-04-10T15:21:38;5.90;;;2.50;;
78589;SDS011;67888;50.228;7.828;2023-04-10T15:26:43;5.72;;;2.42;;
78589;SDS011;67888;50.228;7.828;2023-04-10T15:31:44;6.70;;;2.63;;
78589;SDS011;67888;50.228;7.828;2023-04-10T15:36:45;6.23;;;2.90;;
78589;SDS011;67888;50.228;7.828;2023-04-10T15:41:45;6.10;;;2.33;;
78589;SDS011;67888;50.228;7.828;2023-04-10T15:46:47;6.47;;;2.50;;
78589;SDS011;67888;50.228;7.828;2023-04-10T15:51:47;5.63;;;2.10;;
78589;SDS011;67888;50.228;7.828;2023-04-10T15:56:48;4.70;;;1.80;;
78589;SDS011;67888;50.228;7.828;2023-04-10T16:01:49;3.30;;;1.65;;
78589;SDS011;67888;50.228;7.828;2023-04-10T16:06:49;5.07;;;2.33;;
78589;SDS011;67888;50.228;7.828;2023-04-10T16:11:50;4.83;;;2.00;;
78589;SDS011;67888;50.228;7.828;2023-04-10T16:16:50;4.70;;;2.20;;
78589;SDS011;67888;50.228;7.828;2023-04-10T16:21:51;5.07;;;2.00;;
78589;SDS011;67888;50.228;7.828;2023-04-10T16:26:51;5.90;;;2.33;;
78589;SDS011;67888;50.228;7.828;2023-04-10T16:31:53;5.27;;;2.50;;
78589;SDS011;67888;50.228;7.828;2023-04-10T16:36:53;5.80;;;2.33;;
78589;SDS011;67888;50.228;7.828;2023-04-10T16:41:53;6.77;;;2.63;;
78589;SDS011;67888;50.228;7.828;2023-04-10T16:46:55;6.05;;;2.63;;
78589;SDS011;67888;50.228;7.828;2023-04-10T16:51:55;5.10;;;2.30;;
78589;SDS011;67888;50.228;7.828;2023-04-10T16:56:56;7.37;;;2.53;;
78589;SDS011;67888;50.228;7.828;2023-04-10T17:01:57;6.10;;;2.07;;
78589;SDS011;67888;50.228;7.828;2023-04-10T17:06:58;5.60;;;2.47;;
78589;SDS011;67888;50.228;7.828;2023-04-10T17:11:59;4.40;;;2.00;;
78589;SDS011;67888;50.228;7.828;2023-04-10T17:17:00;6.22;;;2.50;;
78589;SDS011;67888;50.228;7.828;2023-04-10T17:22:01;5.70;;;2.40;;
78589;SDS011;67888;50.228;7.828;2023-04-10T17:27:01;5.43;;;2.30;;
78589;SDS011;67888;50.228;7.828;2023-04-10T17:32:02;6.03;;;2.70;;
78589;SDS011;67888;50.228;7.828;2023-04-10T17:37:02;6.50;;;2.73;;
78589;SDS011;67888;50.228;7.828;2023-04-10T17:42:03;5.60;;;2.40;;
78589;SDS011;67888;50.228;7.828;2023-04-10T17:47:03;5.03;;;2.00;;
78589;SDS011;67888;50.228;7.828;2023-04-10T17:52:04;6.13;;;2.45;;
78589;SDS011;67888;50.228;7.828;2023-04-10T17:57:05;6.50;;;2.40;;
78589;SDS011;67888;50.228;7.828;2023-04-10T18:02:05;6.20;;;2.37;;
78589;SDS011;67888;50.228;7.828;2023-04-10T18:07:06;6.67;;;3.00;;
78589;SDS011;67888;50.228;7.828;2023-04-10T18:12:06;5.87;;;2.47;;
78589;SDS011;67888;50.228;7.828;2023-04-10T18:17:06;6.07;;;2.47;;
78589;SDS011;67888;50.228;7.828;2023-04-10T18:22:07;5.90;;;2.53;;
78589;SDS011;67888;50.228;7.828;2023-04-10T18:27:07;5.77;;;2.67;;
78589;SDS011;67888;50.228;7.828;2023-04-10T18:32:08;5.97;;;2.70;;
78589;SDS011;67888;50.228;7.828;2023-04-10T18:37:08;5.63;;;2.43;;
78589;SDS011;67888;50.228;7.828;2023-04-10T18:42:08;5.67;;;2.47;;
78589;SDS011;67888;50.228;7.828;2023-04-10T18:47:12;5.53;;;2.25;;
78589;SDS011;67888;50.228;7.828;2023-04-10T18:52:14;5.80;;;2.40;;
78589;SDS011;67888;50.228;7.828;2023-04-10T18:57:14;7.63;;;2.93;;
78589;SDS011;67888;50.228;7.828;2023-04-10T19:02:15;7.27;;;2.47;;
78589;SDS011;67888;50.228;7.828;2023-04-10T19:07:15;6.87;;;2.57;;
78589;SDS011;67888;50.228;7.828;2023-04-10T19:12:15;6.83;;;2.93;;
78589;SDS011;67888;50.228;7.828;2023-04-10T19:17:16;6.70;;;2.50;;
78589;SDS011;67888;50.228;7.828;2023-04-10T19:22:16;7.20;;;2.80;;
78589;SDS011;67888;50.228;7.828;2023-04-10T19:27:17;6.17;;;2.50;;
78589;SDS011;67888;50.228;7.828;2023-04-10T19:32:17;7.17;;;2.63;;
78589;SDS011;67888;50.228;7.828;2023-04-10T19:37:18;7.67;;;2.73;;
78589;SDS011;67888;50.228;7.828;2023-04-10T19:42:20;5.65;;;2.60;;
78589;SDS011;67888;50.228;7.828;2023-04-10T19:47:20;6.20;;;2.80;;
78589;SDS011;67888;50.228;7.828;2023-04-10T19:52:21;6.27;;;2.80;;
78589;SDS011;67888;50.228;7.828;2023-04-10T19:57:22;6.78;;;2.80;;
78589;SDS011;67888;50.228;7.828;2023-04-10T20:02:22;8.60;;;3.17;;
78589;SDS011;67888;50.228;7.828;2023-04-10T20:07:23;6.50;;;3.33;;
78589;SDS011;67888;50.228;7.828;2023-04-10T20:12:23;7.80;;;2.92;;
78589;SDS011;67888;50.228;7.828;2023-04-10T20:17:26;6.70;;;3.30;;
78589;SDS011;67888;50.228;7.828;2023-04-10T20:22:27;7.00;;;3.13;;
78589;SDS011;67888;50.228;7.828;2023-04-10T20:27:28;6.60;;;3.25;;
78589;SDS011;67888;50.228;7.828;2023-04-10T20:32:28;6.77;;;3.37;;
78589;SDS011;67888;50.228;7.828;2023-04-10T20:37:29;6.00;;;2.87;;
78589;SDS011;67888;50.228;7.828;2023-04-10T20:42:29;5.90;;;2.67;;
78589;SDS011;67888;50.228;7.828;2023-04-10T20:47:30;6.77;;;3.00;;
78589;SDS011;67888;50.228;7.828;2023-04-10T20:52:30;6.10;;;3.10;;
78589;SDS011;67888;50.228;7.828;2023-04-10T20:57:31;6.32;;;2.50;;
78589;SDS011;67888;50.228;7.828;2023-04-10T21:02:32;7.23;;;3.20;;
78589;SDS011;67888;50.228;7.828;2023-04-10T21:07:33;6.20;;;2.60;;
78589;SDS011;67888;50.228;7.828;2023-04-10T21:12:33;6.17;;;3.00;;
78589;SDS011;67888;50.228;7.828;2023-04-10T21:17:34;6.43;;;3.00;;
78589;SDS011;67888;50.228;7.828;2023-04-10T21:22:34;7.00;;;2.87;;
78589;SDS011;67888;50.228;7.828;2023-04-10T21:27:34;8.07;;;2.83;;
78589;SDS011;67888;50.228;7.828;2023-04-10T21:32:35;6.70;;;2.77;;
78589;SDS011;67888;50.228;7.828;2023-04-10T21:37:35;6.47;;;2.90;;
78589;SDS011;67888;50.228;7.828;2023-04-10T21:42:36;7.03;;;3.30;;
78589;SDS011;67888;50.228;7.828;2023-04-10T21:47:37;7.47;;;3.00;;
78589;SDS011;67888;50.228;7.828;2023-04-10T21:52:37;6.53;;;2.80;;
78589;SDS011;67888;50.228;7.828;2023-04-10T21:57:38;7.23;;;3.20;;
78589;SDS011;67888;50.228;7.828;2023-04-10T22:02:38;7.00;;;3.00;;
78589;SDS011;67888;50.228;7.828;2023-04-10T22:07:38;7.17;;;3.30;;
78589;SDS011;67888;50.228;7.828;2023-04-10T22:12:39;6.97;;;3.25;;
78589;SDS011;67888;50.228;7.828;2023-04-10T22:17:39;7.97;;;3.40;;
78589;SDS011;67888;50.228;7.828;2023-04-10T22:22:40;7.70;;;3.37;;
78589;SDS011;67888;50.228;7.828;2023-04-10T22:27:40;7.00;;;3.20;;
78589;SDS011;67888;50.228;7.828;2023-04-10T22:32:41;8.87;;;3.20;;
78589;SDS011;67888;50.228;7.828;2023-04-10T22:37:41;7.23;;;2.93;;
78589;SDS011;67888;50.228;7.828;2023-04-10T22:42:43;5.80;;;1.50;;
78589;SDS011;67888;50.228;7.828;2023-04-10T22:47:44;3.92;;;1.08;;
78589;SDS011;67888;50.228;7.828;2023-04-10T22:52:44;4.73;;;1.10;;
78589;SDS011;67888;50.228;7.828;2023-04-10T22:57:48;3.60;;;1.30;;
78589;SDS011;67888;50.228;7.828;2023-04-10T23:02:48;3.73;;;1.20;;
78589;SDS011;67888;50.228;7.828;2023-04-10T23:07:49;3.28;;;1.30;;
78589;SDS011;67888;50.228;7.828;2023-04-10T23:12:49;3.37;;;1.27;;
78589;SDS011;67888;50.228;7.828;2023-04-10T23:17:50;2.73;;;1.13;;
78589;SDS011;67888;50.228;7.828;2023-04-10T23:22:50;3.10;;;1.20;;
78589;SDS011;67888;50.228;7.828;2023-04-10T23:27:50;4.60;;;1.40;;
78589;SDS011;67888;50.228;7.828;2023-04-10T23:32:51;16.90;;;3.40;;
78589;SDS011;67888;50.228;7.828;2023-04-10T23:37:51;14.97;;;3.00;;
78589;SDS011;67888;50.228;7.828;2023-04-10T23:42:52;7.18;;;2.25;;
78589;SDS011;67888;50.228;7.828;2023-04-10T23:47:53;7.63;;;2.80;;
78589;SDS011;67888;50.228;7.828;2023-04-10T23:52:53;7.90;;;2.07;;
78589;SDS011;67888;50.228;7.828;2023-04-10T23:57:53;5.33;;;1.73;;
